Uzice, Serbia
Current Conditions -  °F | °C
As of 7:00 PM on Wednesday 26 Nov 2014 (Local Time) from LYUZ Reporting Station
Haze Haze  
Wind Chill: -5°   Ceiling: 1500
Heat Index: -2°   Visibility: 3mi
Dew Point: -2°   Wind: 6mph
Humidity: 100%   Direction: 90°E
Pressure: 30.06"   Gusts: NA
Location:  43.85°N, 19.85°E
Report Text: LYUZ 261700Z 09005KT 5000 BR BKN015 M02/M02 Q1018
Loading
Personal Weather Stations






























Interactive Weather Map New forecast layout! Learn more

10-Day Weather Forecast

Advertisements
Track Severe Weather on mobile